MUCF/CFG METAR and TAF weather

Enter ICAO airport designator
Station Type Date Time Source
MUCF METAR 2020/09/08 22:59 UTC NOAA

MUCF 082259Z AUTO 08005KT 010V120 27/23 Q1012


Station Type Date Time Source
MUCF Decoded METAR 2020/09/08 22:59 UTC NOAA

Cienfuegos, Las Villas, Cuba (MUCF) 22-09N 080-24W 39M
Sep 08, 2020 - 06:59 PM EDT / 2020.09.08 2259 UTC
Wind: from the E (080 degrees) at 6 MPH (5 KT) (direction variable):0
Temperature: 80 F (27 C)
Dew Point: 73 F (23 C)
Relative Humidity: 78%
Pressure (altimeter): 29.88 in. Hg (1012 hPa)
ob: MUCF 082259Z AUTO 08005KT 010V120 27/23 Q1012
cycle: 23

Station Type Date Time Source
MUCF TAF 2020/08/21 12:03 UTC NOAA

MUCF 211100Z 2112/2124 07005KT 9000 SCT020
BECMG 2115/2117 24008KT
TEMPO 2118/2124 VRB10KT 3000 TSRA SCT018CB BKN020

Example: see airport list